createdAt,value
2023-03-15T00:00:31.095Z,100616.53
2023-03-15T00:05:32.940Z,100633.28
2023-03-15T00:10:34.807Z,100651.84
2023-03-15T00:15:37.996Z,100650.91
2023-03-15T00:20:39.974Z,100651.78
2023-03-15T00:25:45.561Z,100652.88
2023-03-15T00:30:47.682Z,100665.19
2023-03-15T00:35:49.555Z,100665.13
2023-03-15T00:40:51.367Z,100674.78
2023-03-15T00:45:53.651Z,100677.59
2023-03-15T00:51:06.476Z,100682.03
2023-03-15T00:56:14.374Z,100686.41
2023-03-15T01:01:19.057Z,100681.03
2023-03-15T01:06:23.856Z,100679.38
2023-03-15T01:11:28.424Z,100682.97
2023-03-15T01:16:30.542Z,100676.88
2023-03-15T01:21:32.583Z,100674.09
2023-03-15T01:26:34.554Z,100665.34
2023-03-15T01:31:36.505Z,100671.56
2023-03-15T01:36:38.292Z,100686.56
2023-03-15T01:41:40.173Z,100690.06
2023-03-15T01:46:42.394Z,100696.94
2023-03-15T01:51:58.770Z,100696.22
2023-03-15T01:57:03.273Z,100683.97
2023-03-15T02:02:06.654Z,100688.31
2023-03-15T02:07:10.030Z,100689.28
2023-03-15T02:12:12.361Z,100690.91
2023-03-15T02:17:14.400Z,100680.31
2023-03-15T02:22:28.349Z,100686.47
2023-03-15T02:27:34.702Z,100690.97
2023-03-15T02:32:36.793Z,100685.78
2023-03-15T02:37:38.971Z,100684.88
2023-03-15T02:42:42.718Z,100691.06
2023-03-15T02:47:46.221Z,100690.28
2023-03-15T02:52:48.165Z,100692.78
2023-03-15T02:57:50.379Z,100694.56
2023-03-15T03:02:52.774Z,100699.09
2023-03-15T03:07:55.294Z,100702.75
2023-03-15T03:12:57.140Z,100704.34
2023-03-15T03:17:58.997Z,100724.59
2023-03-15T03:23:06.104Z,100738.81
2023-03-15T03:28:08.196Z,100747.69
2023-03-15T03:33:10.124Z,100768.97
2023-03-15T03:38:13.337Z,100767.19
2023-03-15T03:43:15.429Z,100755.69
2023-03-15T03:48:17.302Z,100766.41
2023-03-15T03:53:19.303Z,100774.53
2023-03-15T03:58:21.885Z,100779.56
2023-03-15T04:03:27.487Z,100786.66
2023-03-15T04:08:29.619Z,100794.69
2023-03-15T04:13:31.910Z,100807.81
2023-03-15T04:18:33.730Z,100824.81
2023-03-15T04:23:35.744Z,100821.22
2023-03-15T04:28:38.258Z,100827.41
2023-03-15T04:33:40.606Z,100839.06
2023-03-15T04:38:42.534Z,100835.41
2023-03-15T04:43:45.052Z,100846.03
2023-03-15T04:48:47.086Z,100842.56
2023-03-15T04:53:48.963Z,100849.59
2023-03-15T04:58:50.711Z,100849.66
2023-03-15T05:03:53.939Z,100844.44
2023-03-15T05:08:56.275Z,100845.22
2023-03-15T05:13:58.359Z,100860.19
2023-03-15T05:19:00.533Z,100872.59
2023-03-15T05:24:02.630Z,100870.81
2023-03-15T05:29:04.564Z,100897.41
2023-03-15T05:34:07.746Z,100878.84
2023-03-15T05:39:09.717Z,100899.16
2023-03-15T05:44:11.625Z,100889.44
2023-03-15T05:49:13.507Z,100895.75
2023-03-15T05:54:15.469Z,100911.66
2023-03-15T05:59:17.342Z,100921.34
2023-03-15T06:04:19.420Z,100939.03
2023-03-15T06:09:21.531Z,100941.69
2023-03-15T06:14:23.893Z,100947.06
2023-03-15T06:19:26.136Z,100958.47
2023-03-15T06:24:28.055Z,100961.16
2023-03-15T06:29:30.218Z,100972.66
2023-03-15T06:34:32.170Z,100971.78
2023-03-15T06:39:34.752Z,100976.16
2023-03-15T06:44:37.050Z,100984.22
2023-03-15T06:49:39.143Z,101000.22
2023-03-15T06:54:41.258Z,101004.53
2023-03-15T06:59:43.290Z,101012.34
2023-03-15T07:04:45.604Z,101020.44
2023-03-15T07:09:47.852Z,101030.31
2023-03-15T07:14:50.321Z,101038.50
2023-03-15T07:19:56.683Z,101046.47
2023-03-15T07:24:59.590Z,101051.72
2023-03-15T07:30:01.454Z,101056.22
2023-03-15T07:35:03.557Z,101067.56
2023-03-15T07:40:10.068Z,101076.38
2023-03-15T07:45:12.395Z,101089.41
2023-03-15T07:50:16.824Z,101100.25
2023-03-15T07:55:22.203Z,101103.41
2023-03-15T08:00:24.508Z,101115.63
2023-03-15T08:05:28.915Z,101124.97
2023-03-15T08:10:31.118Z,101133.84
2023-03-15T08:15:33.257Z,101139.22
2023-03-15T08:20:35.169Z,101155.94
2023-03-15T08:25:41.115Z,101152.03
2023-03-15T08:30:43.055Z,101156.19
2023-03-15T08:35:44.960Z,101179.59
2023-03-15T08:40:47.328Z,101174.13
2023-03-15T08:46:00.756Z,101182.16
2023-03-15T08:51:05.607Z,101177.13
2023-03-15T08:56:07.643Z,101186.94
2023-03-15T09:01:12.299Z,101188.84
2023-03-15T09:06:14.626Z,101207.34
2023-03-15T09:11:16.495Z,101202.41
2023-03-15T09:16:18.274Z,101205.88
2023-03-15T09:21:20.021Z,101206.72
2023-03-15T09:26:21.937Z,101205.72
2023-03-15T09:31:25.211Z,101220.78
2023-03-15T09:36:27.295Z,101213.00
2023-03-15T09:41:43.508Z,101203.22
2023-03-15T09:47:02.162Z,101213.69
2023-03-15T09:52:15.950Z,101214.44
2023-03-15T09:57:24.217Z,101209.78
2023-03-15T10:02:29.918Z,101214.94
2023-03-15T10:07:32.953Z,101227.34
2023-03-15T10:12:41.696Z,101230.09
2023-03-15T10:17:58.157Z,101235.63
2023-03-15T10:23:13.678Z,101228.56
2023-03-15T10:28:28.821Z,101229.50
2023-03-15T10:33:36.414Z,101227.75
2023-03-15T10:38:39.288Z,101224.13
2023-03-15T10:43:41.977Z,101228.69
2023-03-15T10:49:10.580Z,101238.66
2023-03-15T10:54:21.274Z,101238.66
2023-03-15T10:59:25.641Z,101257.16
2023-03-15T11:04:28.036Z,101257.28
2023-03-15T11:10:00.784Z,101264.44
2023-03-15T11:15:08.147Z,101265.28
2023-03-15T11:20:34.259Z,101275.94
2023-03-15T11:25:36.288Z,101279.50
2023-03-15T11:30:42.020Z,101282.06
2023-03-15T11:35:49.993Z,101284.78
2023-03-15T11:40:57.078Z,101298.91
2023-03-15T11:46:02.288Z,101298.97
2023-03-15T11:51:06.084Z,101290.97
2023-03-15T11:56:40.201Z,101289.28
2023-03-15T12:01:56.499Z,101296.34
2023-03-15T12:07:00.620Z,101288.34
2023-03-15T12:12:25.762Z,101291.19
2023-03-15T12:17:27.786Z,101280.44
2023-03-15T12:22:34.143Z,101287.59
2023-03-15T12:27:37.759Z,101271.59
2023-03-15T12:32:49.678Z,101268.94
2023-03-15T12:37:53.627Z,101270.59
2023-03-15T12:42:57.619Z,101266.91
2023-03-15T12:47:59.565Z,101252.88
2023-03-15T12:53:03.527Z,101267.03
2023-03-15T12:58:05.605Z,101266.16
2023-03-15T13:03:17.293Z,101268.81
2023-03-15T13:08:25.974Z,101253.88
2023-03-15T13:13:28.008Z,101259.13
2023-03-15T13:18:34.732Z,101259.09
2023-03-15T13:23:37.812Z,101253.81
2023-03-15T13:28:46.839Z,101254.69
2023-03-15T13:33:50.366Z,101255.44
2023-03-15T13:38:54.696Z,101246.72
2023-03-15T13:44:00.618Z,101243.16
2023-03-15T13:49:02.469Z,101244.88
2023-03-15T13:54:07.640Z,101254.56
2023-03-15T13:59:10.157Z,101265.25
2023-03-15T14:04:18.867Z,101266.16
2023-03-15T14:09:28.810Z,101264.25
2023-03-15T14:14:33.050Z,101258.16
2023-03-15T14:19:37.139Z,101241.47
2023-03-15T14:24:41.817Z,101250.25
2023-03-15T14:29:56.809Z,101263.50
2023-03-15T14:35:08.904Z,101269.75
2023-03-15T14:40:20.414Z,101266.16
2023-03-15T14:45:23.417Z,101275.03
2023-03-15T14:50:29.006Z,101267.91
2023-03-15T14:55:35.110Z,101270.59
2023-03-15T15:00:37.233Z,101276.66
2023-03-15T15:05:39.084Z,101278.50
2023-03-15T15:10:42.751Z,101270.59
2023-03-15T15:15:55.002Z,101266.16
2023-03-15T15:21:01.530Z,101255.66
2023-03-15T15:26:05.628Z,101246.69
2023-03-15T15:31:07.644Z,101248.28
2023-03-15T15:36:21.291Z,101240.59
2023-03-15T15:41:26.296Z,101242.28
2023-03-15T15:46:28.432Z,101243.03
2023-03-15T15:51:38.995Z,101237.78
2023-03-15T15:56:54.613Z,101235.09
2023-03-15T16:02:01.145Z,101238.59
2023-03-15T16:07:04.375Z,101228.03
2023-03-15T16:12:18.129Z,101231.69
2023-03-15T16:17:22.532Z,101230.78
2023-03-15T16:22:26.895Z,101238.78
2023-03-15T16:27:29.837Z,101236.16
2023-03-15T16:32:43.471Z,101234.44
2023-03-15T16:37:46.893Z,101236.13
2023-03-15T16:42:49.816Z,101248.56
2023-03-15T16:47:52.371Z,101249.47
2023-03-15T16:52:57.618Z,101254.41
2023-03-15T16:58:10.233Z,101243.97
2023-03-15T17:03:12.779Z,101241.31
2023-03-15T17:08:18.887Z,101250.44
2023-03-15T17:13:30.078Z,101254.13
2023-03-15T17:18:33.898Z,101251.47
2023-03-15T17:23:36.744Z,101260.50
2023-03-15T17:28:39.192Z,101258.81
2023-03-15T17:33:42.009Z,101259.31
2023-03-15T17:38:44.403Z,101269.81
2023-03-15T17:43:46.760Z,101265.63
2023-03-15T17:48:49.396Z,101264.06
2023-03-15T17:53:52.126Z,101272.78
2023-03-15T17:58:57.472Z,101275.06
2023-03-15T18:04:02.491Z,101279.97
2023-03-15T18:09:05.185Z,101284.31
2023-03-15T18:14:07.879Z,101292.03
2023-03-15T18:19:10.797Z,101300.53
2023-03-15T18:24:13.850Z,101299.56
2023-03-15T18:29:16.161Z,101298.97
2023-03-15T18:34:22.341Z,101297.75
2023-03-15T18:39:26.135Z,101289.34
2023-03-15T18:44:28.198Z,101290.19
2023-03-15T18:49:30.073Z,101294.97
2023-03-15T18:54:31.908Z,101285.59
2023-03-15T18:59:34.221Z,101293.78
2023-03-15T19:04:36.298Z,101290.47
2023-03-15T19:09:38.256Z,101286.25
2023-03-15T19:14:40.194Z,101285.88
2023-03-15T19:19:42.264Z,101283.09
2023-03-15T19:24:44.545Z,101286.00
2023-03-15T19:29:46.436Z,101277.22
2023-03-15T19:34:48.525Z,101278.66
2023-03-15T19:39:51.107Z,101289.06
2023-03-15T19:44:53.276Z,101281.00
2023-03-15T19:49:55.430Z,101284.91
2023-03-15T19:54:57.396Z,101274.88
2023-03-15T19:59:59.255Z,101292.66
2023-03-15T20:05:01.284Z,101279.34
2023-03-15T20:10:04.838Z,101273.28
2023-03-15T20:15:09.512Z,101279.50
2023-03-15T20:20:13.995Z,101288.19
2023-03-15T20:25:18.693Z,101288.31
2023-03-15T20:30:21.493Z,101288.50
2023-03-15T20:35:23.843Z,101288.50
2023-03-15T20:40:26.062Z,101279.69
2023-03-15T20:45:28.143Z,101292.88
2023-03-15T20:50:29.924Z,101284.19
2023-03-15T20:55:34.710Z,101285.09
2023-03-15T21:00:37.662Z,101283.91
2023-03-15T21:05:45.532Z,101277.88
2023-03-15T21:10:47.702Z,101279.75
2023-03-15T21:15:53.622Z,101273.06
2023-03-15T21:21:00.011Z,101268.72
2023-03-15T21:26:05.428Z,101266.91
2023-03-15T21:31:08.734Z,101262.50
2023-03-15T21:36:11.074Z,101266.91
2023-03-15T21:41:14.589Z,101256.25
2023-03-15T21:46:16.993Z,101254.50
2023-03-15T21:51:19.490Z,101251.75
2023-03-15T21:56:26.324Z,101256.19
2023-03-15T22:01:28.338Z,101244.72
2023-03-15T22:06:30.281Z,101243.00
2023-03-15T22:11:32.102Z,101249.22
2023-03-15T22:16:33.997Z,101247.41
2023-03-15T22:21:36.025Z,101236.00
2023-03-15T22:26:38.111Z,101236.81
2023-03-15T22:31:40.044Z,101241.25
2023-03-15T22:36:43.331Z,101246.69
2023-03-15T22:41:45.202Z,101239.63
2023-03-15T22:46:47.211Z,101224.47
2023-03-15T22:51:49.041Z,101225.34
2023-03-15T22:56:51.604Z,101229.03
2023-03-15T23:01:53.632Z,101221.88
2023-03-15T23:06:55.807Z,101230.78
2023-03-15T23:11:57.677Z,101241.25
2023-03-15T23:16:59.495Z,101236.94
2023-03-15T23:22:04.784Z,101237.69
2023-03-15T23:27:07.254Z,101229.91
2023-03-15T23:32:09.812Z,101222.81
2023-03-15T23:37:11.832Z,101221.97
2023-03-15T23:42:14.159Z,101229.16
2023-03-15T23:47:16.271Z,101215.75
2023-03-15T23:52:19.019Z,101209.56
2023-03-15T23:57:21.540Z,101211.34
